Olga, Washington
Current Conditions -  °F | °C
As of 8:15 AM on Thursday 18 Dec 2014 (Local Time) from KORS Reporting Station
Broken Clouds Broken Clouds  
Wind Chill: 44°   Ceiling: 1300
Heat Index: 46°   Visibility: 10mi
Dew Point: 45°   Wind: 5mph
Humidity: 93%   Direction: 160°SSE
Pressure: 29.88"   Gusts: NA
Location:  48.62°N, 122.83°W
Report Text: KORS 181615Z AUTO 16004KT 10SM BKN013 BKN025 BKN060 08/07 A2988 RMK AO2
Loading
Personal Weather Stations






























Interactive Weather Map New forecast layout! Learn more

10-Day Weather Forecast

Advertisements
Track Severe Weather on mobile